createdAt,value
2022-10-24T00:02:41.306Z,77.88
2022-10-24T00:05:48.813Z,78.46
2022-10-24T00:08:51.338Z,78.45
2022-10-24T00:15:27.323Z,78.86
2022-10-24T00:18:29.550Z,78.99
2022-10-24T00:21:31.702Z,78.31
2022-10-24T00:24:34.111Z,78.72
2022-10-24T00:27:36.786Z,78.81
2022-10-24T00:30:38.981Z,78.44
2022-10-24T00:33:41.116Z,78.94
2022-10-24T00:36:43.897Z,78.40
2022-10-24T00:39:45.903Z,76.93
2022-10-24T00:42:48.994Z,77.22
2022-10-24T00:45:55.213Z,77.53
2022-10-24T00:48:57.453Z,77.80
2022-10-24T00:52:04.086Z,78.11
2022-10-24T00:55:06.787Z,78.02
2022-10-24T00:58:09.701Z,77.33
2022-10-24T01:01:14.054Z,76.47
2022-10-24T01:04:16.280Z,77.57
2022-10-24T01:07:23.807Z,77.19
2022-10-24T01:11:04.853Z,77.45
2022-10-24T01:14:12.141Z,77.51
2022-10-24T01:17:22.922Z,77.40
2022-10-24T01:20:37.317Z,76.86
2022-10-24T01:24:05.340Z,77.48
2022-10-24T01:27:44.551Z,77.80
2022-10-24T01:31:03.160Z,77.51
2022-10-24T01:34:30.224Z,77.19
2022-10-24T01:37:34.951Z,77.00
2022-10-24T01:40:57.413Z,77.99
2022-10-24T01:44:09.973Z,77.21
2022-10-24T01:47:18.851Z,76.64
2022-10-24T01:50:24.025Z,77.41
2022-10-24T01:53:29.419Z,77.42
2022-10-24T01:56:31.357Z,77.27
2022-10-24T01:59:33.582Z,76.58
2022-10-24T02:02:43.640Z,77.46
2022-10-24T02:05:52.557Z,77.05
2022-10-24T02:08:58.783Z,77.62
2022-10-24T02:12:01.587Z,76.64
2022-10-24T02:15:11.330Z,77.54
2022-10-24T02:18:13.805Z,77.33
2022-10-24T02:21:36.394Z,77.23
2022-10-24T02:24:56.481Z,77.42
2022-10-24T02:28:18.397Z,78.33
2022-10-24T02:31:25.046Z,77.21
2022-10-24T02:34:32.351Z,78.09
2022-10-24T02:37:38.825Z,78.39
2022-10-24T02:40:44.933Z,78.84
2022-10-24T02:43:51.015Z,79.24
2022-10-24T02:46:57.339Z,79.14
2022-10-24T02:49:59.443Z,78.61
2022-10-24T02:53:01.693Z,79.22
2022-10-24T02:56:04.426Z,78.53
2022-10-24T02:59:06.689Z,78.95
2022-10-24T03:02:09.305Z,78.25
2022-10-24T03:05:11.790Z,78.12
2022-10-24T03:08:14.475Z,77.85
2022-10-24T03:11:17.923Z,78.03
2022-10-24T03:14:20.250Z,77.85
2022-10-24T03:17:23.525Z,77.89
2022-10-24T03:20:25.862Z,78.10
2022-10-24T03:23:28.853Z,78.32
2022-10-24T03:26:30.916Z,78.64
2022-10-24T03:29:33.219Z,79.32
2022-10-24T03:32:35.916Z,79.59
2022-10-24T03:35:38.883Z,79.33
2022-10-24T03:38:41.139Z,80.04
2022-10-24T03:41:43.347Z,79.55
2022-10-24T03:44:45.503Z,80.51
2022-10-24T03:47:47.439Z,79.82
2022-10-24T03:50:49.437Z,83.99
2022-10-24T03:53:51.510Z,86.41
2022-10-24T03:56:53.878Z,88.68
2022-10-24T03:59:57.318Z,93.31
2022-10-24T04:02:59.492Z,96.23
2022-10-24T04:06:02.125Z,97.97
2022-10-24T04:09:07.492Z,100.00
2022-10-24T04:12:09.689Z,100.00
2022-10-24T04:15:11.855Z,100.00
2022-10-24T04:18:15.846Z,100.00
2022-10-24T04:21:21.592Z,100.00
2022-10-24T04:24:25.096Z,100.00
2022-10-24T04:27:27.445Z,100.00
2022-10-24T04:30:30.058Z,100.00
2022-10-24T04:33:32.188Z,100.00
2022-10-24T04:36:35.116Z,100.00
2022-10-24T04:39:37.402Z,100.00
2022-10-24T04:42:39.731Z,100.00
2022-10-24T04:45:41.811Z,99.78
2022-10-24T04:48:44.014Z,97.55
2022-10-24T04:51:47.418Z,97.02
2022-10-24T04:54:49.540Z,96.33
2022-10-24T04:57:52.960Z,95.60
2022-10-24T05:00:55.932Z,95.24
2022-10-24T05:03:58.112Z,93.92
2022-10-24T05:07:00.274Z,94.26
2022-10-24T05:10:02.357Z,93.12
2022-10-24T05:13:05.878Z,93.50
2022-10-24T05:16:08.123Z,92.18
2022-10-24T05:19:10.238Z,91.67
2022-10-24T05:22:12.363Z,90.84
2022-10-24T05:25:14.508Z,90.70
2022-10-24T05:28:16.596Z,90.31
2022-10-24T05:31:18.791Z,89.55
2022-10-24T05:34:20.873Z,89.64
2022-10-24T05:37:23.699Z,88.26
2022-10-24T05:40:26.824Z,87.49
2022-10-24T05:43:28.869Z,87.67
2022-10-24T05:46:30.827Z,87.44
2022-10-24T05:49:34.077Z,87.83
2022-10-24T05:52:36.722Z,87.15
2022-10-24T05:55:40.428Z,89.30
2022-10-24T05:58:42.563Z,90.03
2022-10-24T06:01:44.799Z,86.61
2022-10-24T06:04:48.280Z,82.46
2022-10-24T06:07:50.462Z,78.94
2022-10-24T06:10:53.823Z,74.53
2022-10-24T06:13:56.959Z,70.61
2022-10-24T06:16:59.232Z,69.60
2022-10-24T06:20:01.322Z,69.02
2022-10-24T06:23:03.584Z,70.43
2022-10-24T06:26:11.099Z,68.77
2022-10-24T06:29:13.252Z,66.12
2022-10-24T06:32:17.530Z,63.49
2022-10-24T06:35:19.802Z,61.10
2022-10-24T06:38:21.822Z,60.48
2022-10-24T06:41:26.074Z,57.50
2022-10-24T06:44:28.560Z,57.07
2022-10-24T06:47:33.380Z,60.94
2022-10-24T06:50:36.985Z,64.81
2022-10-24T06:53:41.680Z,68.00
2022-10-24T06:56:43.758Z,69.66
2022-10-24T06:59:46.438Z,75.26
2022-10-24T07:02:48.744Z,74.80
2022-10-24T07:05:56.991Z,75.35
2022-10-24T07:09:01.004Z,77.18
2022-10-24T07:12:03.061Z,75.38
2022-10-24T07:15:08.658Z,76.64
2022-10-24T07:18:14.951Z,75.28
2022-10-24T07:21:28.874Z,75.24
2022-10-24T07:24:30.810Z,77.85
2022-10-24T07:27:34.130Z,78.59
2022-10-24T07:30:36.206Z,79.49
2022-10-24T07:33:40.047Z,82.37
2022-10-24T07:36:43.938Z,82.78
2022-10-24T07:39:47.622Z,82.75
2022-10-24T07:42:49.756Z,82.90
2022-10-24T07:45:52.329Z,84.14
2022-10-24T07:48:56.238Z,84.92
2022-10-24T07:51:58.330Z,84.93
2022-10-24T07:55:00.839Z,88.17
2022-10-24T07:58:02.965Z,90.76
2022-10-24T08:01:08.781Z,88.34
2022-10-24T08:04:12.363Z,90.22
2022-10-24T08:07:14.458Z,91.63
2022-10-24T08:10:18.598Z,92.05
2022-10-24T08:13:20.511Z,93.99
2022-10-24T08:16:26.290Z,93.90
2022-10-24T08:19:28.720Z,93.77
2022-10-24T08:22:31.131Z,93.94
2022-10-24T08:25:33.520Z,94.05
2022-10-24T08:28:37.022Z,94.67
2022-10-24T08:31:39.272Z,95.02
2022-10-24T08:34:41.396Z,93.55
2022-10-24T08:37:43.894Z,91.01
2022-10-24T08:40:49.417Z,88.72
2022-10-24T08:43:53.662Z,87.14
2022-10-24T08:47:10.077Z,84.27
2022-10-24T08:50:30.710Z,82.24
2022-10-24T08:53:34.432Z,82.35
2022-10-24T08:56:36.640Z,81.73
2022-10-24T08:59:39.749Z,81.12
2022-10-24T09:02:45.205Z,81.20
2022-10-24T09:05:51.826Z,80.94
2022-10-24T09:09:00.032Z,80.40
2022-10-24T09:12:21.612Z,80.47
2022-10-24T09:15:29.456Z,80.96
2022-10-24T09:18:39.911Z,80.68
2022-10-24T09:21:43.555Z,80.33
2022-10-24T09:24:48.626Z,80.94
2022-10-24T09:27:52.250Z,80.97
2022-10-24T09:30:54.280Z,80.83
2022-10-24T09:34:00.614Z,80.56
2022-10-24T09:37:02.656Z,81.33
2022-10-24T09:40:12.077Z,80.89
2022-10-24T09:43:17.154Z,80.73
2022-10-24T09:46:26.529Z,79.69
2022-10-24T09:49:41.510Z,79.11
2022-10-24T09:52:53.514Z,76.82
2022-10-24T09:56:03.027Z,76.17
2022-10-24T09:59:44.463Z,77.41
2022-10-24T10:03:07.372Z,76.73
2022-10-24T10:06:21.016Z,76.93
2022-10-24T10:09:35.478Z,76.99
2022-10-24T10:12:44.515Z,77.06
2022-10-24T10:15:50.657Z,77.76
2022-10-24T10:19:15.475Z,81.10
2022-10-24T10:22:32.987Z,82.87
2022-10-24T10:25:35.022Z,81.64
2022-10-24T10:28:43.536Z,81.02
2022-10-24T10:31:45.463Z,79.64
2022-10-24T10:34:56.930Z,79.20
2022-10-24T10:38:11.864Z,78.54
2022-10-24T10:41:38.834Z,78.38
2022-10-24T10:44:56.369Z,78.50
2022-10-24T10:48:07.643Z,78.70
2022-10-24T10:51:27.562Z,78.50
2022-10-24T10:54:37.415Z,78.05
2022-10-24T10:57:59.064Z,78.56
2022-10-24T11:01:16.820Z,79.43
2022-10-24T11:04:44.762Z,78.34
2022-10-24T11:07:47.040Z,78.34
2022-10-24T11:10:57.942Z,77.80
2022-10-24T11:14:27.620Z,78.21
2022-10-24T11:17:38.130Z,79.15
2022-10-24T11:20:55.991Z,78.78
2022-10-24T11:24:09.847Z,79.69
2022-10-24T11:27:26.626Z,79.09
2022-10-24T11:30:58.905Z,79.69
2022-10-24T11:34:34.744Z,80.69
2022-10-24T11:37:42.131Z,79.33
2022-10-24T11:40:47.058Z,79.82
2022-10-24T11:43:55.054Z,80.45
2022-10-24T11:47:10.591Z,80.19
2022-10-24T11:50:24.721Z,80.30
2022-10-24T11:53:34.615Z,79.17
2022-10-24T11:56:43.131Z,81.66
2022-10-24T11:59:45.052Z,83.93
2022-10-24T12:02:53.045Z,85.31
2022-10-24T12:06:16.547Z,84.62
2022-10-24T12:09:33.617Z,85.86
2022-10-24T12:13:14.238Z,85.36
2022-10-24T12:16:31.707Z,86.06
2022-10-24T12:19:34.215Z,85.29
2022-10-24T12:22:40.577Z,86.21
2022-10-24T12:25:47.297Z,87.61
2022-10-24T12:28:56.108Z,87.94
2022-10-24T12:31:58.716Z,87.87
2022-10-24T12:35:29.004Z,88.25
2022-10-24T12:38:28.196Z,88.01
2022-10-24T12:41:33.273Z,87.91
2022-10-24T12:44:41.377Z,88.94
2022-10-24T12:48:04.513Z,90.05
2022-10-24T12:51:26.582Z,89.87
2022-10-24T12:54:45.875Z,91.72
2022-10-24T12:57:48.082Z,92.05
2022-10-24T13:01:04.996Z,87.42
2022-10-24T13:04:34.448Z,86.42
2022-10-24T13:07:57.746Z,82.81
2022-10-24T13:11:37.373Z,79.72
2022-10-24T13:15:07.476Z,77.17
2022-10-24T13:18:24.789Z,78.70
2022-10-24T13:21:32.729Z,80.75
2022-10-24T13:24:40.115Z,78.24
2022-10-24T13:27:42.292Z,75.45
2022-10-24T13:30:47.359Z,76.95
2022-10-24T13:33:53.427Z,77.17
2022-10-24T13:37:02.860Z,76.81
2022-10-24T13:40:20.538Z,77.75
2022-10-24T13:43:22.729Z,77.12
2022-10-24T13:46:59.335Z,77.05
2022-10-24T13:50:06.930Z,76.63
2022-10-24T13:53:30.320Z,78.05
2022-10-24T13:56:38.451Z,77.71
2022-10-24T13:59:40.339Z,77.03
2022-10-24T14:02:43.038Z,75.92
2022-10-24T14:05:49.926Z,76.24
2022-10-24T14:09:03.943Z,75.33
2022-10-24T14:12:17.745Z,74.34
2022-10-24T14:15:22.788Z,74.56
2022-10-24T14:18:24.941Z,73.57
2022-10-24T14:21:26.943Z,73.41
2022-10-24T14:24:32.081Z,73.97
2022-10-24T14:27:35.471Z,73.46
2022-10-24T14:30:37.499Z,73.47
2022-10-24T14:33:45.749Z,73.92
2022-10-24T14:36:48.112Z,73.60
2022-10-24T14:39:50.478Z,74.20
2022-10-24T14:42:53.746Z,73.47
2022-10-24T14:46:17.658Z,73.30
2022-10-24T14:49:26.367Z,73.10
2022-10-24T14:52:36.917Z,72.35
2022-10-24T14:55:39.609Z,72.62
2022-10-24T14:58:41.705Z,72.36
2022-10-24T15:01:53.909Z,72.00
2022-10-24T15:05:16.137Z,71.99
2022-10-24T15:08:22.758Z,71.86
2022-10-24T15:11:29.193Z,72.69
2022-10-24T15:14:40.507Z,71.64
2022-10-24T15:17:45.522Z,72.55
2022-10-24T15:20:51.069Z,71.58
2022-10-24T15:24:00.987Z,71.54
2022-10-24T15:27:11.616Z,71.29
2022-10-24T15:30:23.346Z,70.85
2022-10-24T15:33:25.414Z,71.70
2022-10-24T15:36:31.604Z,72.76
2022-10-24T15:39:34.015Z,74.35
2022-10-24T15:42:36.032Z,75.67
2022-10-24T15:45:38.373Z,76.33
2022-10-24T15:48:41.730Z,77.39
2022-10-24T15:51:50.898Z,77.99
2022-10-24T15:55:02.663Z,79.02
2022-10-24T15:58:11.916Z,79.45
2022-10-24T16:01:23.960Z,79.09
2022-10-24T16:04:30.417Z,79.00
2022-10-24T16:07:32.833Z,79.33
2022-10-24T16:10:38.202Z,78.10
2022-10-24T16:13:43.105Z,78.33
2022-10-24T16:16:45.570Z,78.22
2022-10-24T16:19:47.750Z,78.04
2022-10-24T16:22:53.321Z,77.88
2022-10-24T16:25:56.217Z,78.13
2022-10-24T16:29:01.118Z,78.31
2022-10-24T16:32:08.331Z,77.72
2022-10-24T16:35:15.970Z,78.13
2022-10-24T16:38:21.504Z,78.14
2022-10-24T16:41:26.496Z,78.31
2022-10-24T16:44:29.241Z,78.95
2022-10-24T16:47:32.816Z,78.62
2022-10-24T16:50:35.275Z,78.38
2022-10-24T16:53:37.425Z,79.01
2022-10-24T16:56:39.515Z,78.87
2022-10-24T16:59:58.529Z,78.70
2022-10-24T17:03:00.537Z,79.23
2022-10-24T17:06:03.695Z,79.31
2022-10-24T17:09:05.722Z,79.91
2022-10-24T17:12:08.908Z,80.62
2022-10-24T17:15:12.108Z,80.52
2022-10-24T17:18:14.196Z,80.81
2022-10-24T17:21:17.674Z,80.95
2022-10-24T17:24:25.770Z,80.72
2022-10-24T17:27:28.114Z,80.50
2022-10-24T17:30:30.867Z,81.06
2022-10-24T17:33:36.242Z,80.92
2022-10-24T17:36:43.094Z,81.88
2022-10-24T17:39:59.256Z,81.81
2022-10-24T17:43:03.241Z,81.74
2022-10-24T17:46:05.514Z,81.38
2022-10-24T17:49:10.701Z,81.74
2022-10-24T17:52:17.717Z,82.25
2022-10-24T17:58:51.259Z,82.63
2022-10-24T18:01:53.285Z,83.28
2022-10-24T18:04:55.514Z,82.72
2022-10-24T18:07:58.177Z,83.37
2022-10-24T18:11:02.555Z,83.49
2022-10-24T18:14:04.670Z,82.12
2022-10-24T18:17:06.858Z,81.58
2022-10-24T18:20:09.796Z,82.22
2022-10-24T18:23:11.887Z,81.53
2022-10-24T18:26:19.312Z,82.14
2022-10-24T18:29:21.299Z,82.23
2022-10-24T18:32:23.500Z,81.92
2022-10-24T18:35:27.543Z,82.49
2022-10-24T18:38:32.600Z,81.72
2022-10-24T18:41:42.583Z,82.19
2022-10-24T18:44:50.885Z,82.71
2022-10-24T18:47:53.269Z,82.86
2022-10-24T18:50:55.423Z,82.34
2022-10-24T18:54:04.022Z,83.26
2022-10-24T18:57:23.122Z,84.03
2022-10-24T19:00:29.559Z,84.22
2022-10-24T19:03:37.152Z,83.79
2022-10-24T19:06:41.168Z,83.56
2022-10-24T19:09:43.961Z,83.43
2022-10-24T19:12:46.633Z,83.39
2022-10-24T19:16:05.519Z,84.26
2022-10-24T19:19:09.355Z,84.22
2022-10-24T19:22:11.404Z,85.09
2022-10-24T19:25:15.628Z,86.33
2022-10-24T19:28:20.104Z,89.82
2022-10-24T19:31:23.530Z,88.39
2022-10-24T19:34:27.000Z,87.63
2022-10-24T19:37:29.036Z,87.94
2022-10-24T19:40:31.183Z,87.78
2022-10-24T19:43:33.238Z,87.40
2022-10-24T19:46:35.597Z,88.08
2022-10-24T19:49:39.280Z,88.25
2022-10-24T19:52:41.420Z,87.66
2022-10-24T19:55:44.313Z,88.39
2022-10-24T19:58:46.891Z,89.04
2022-10-24T20:01:49.453Z,88.93
2022-10-24T20:04:52.355Z,88.34
2022-10-24T20:07:54.344Z,89.50
2022-10-24T20:10:56.462Z,89.09
2022-10-24T20:13:58.725Z,89.09
2022-10-24T20:17:01.136Z,89.21
2022-10-24T20:20:05.081Z,90.26
2022-10-24T20:23:07.115Z,88.99
2022-10-24T20:26:18.265Z,88.80
2022-10-24T20:29:20.367Z,88.35
2022-10-24T20:32:22.408Z,88.09
2022-10-24T20:38:28.791Z,87.66
2022-10-24T20:41:31.010Z,88.29
2022-10-24T20:44:33.152Z,88.28
2022-10-24T20:47:36.397Z,88.39
2022-10-24T20:50:38.342Z,87.38
2022-10-24T20:53:41.787Z,87.65
2022-10-24T20:56:46.884Z,87.45
2022-10-24T20:59:49.006Z,86.88
2022-10-24T21:02:51.978Z,87.26
2022-10-24T21:05:54.017Z,87.67
2022-10-24T21:08:58.616Z,86.80
2022-10-24T21:12:01.048Z,86.41
2022-10-24T21:15:03.286Z,86.64
2022-10-24T21:18:05.998Z,86.98
2022-10-24T21:21:13.312Z,87.59
2022-10-24T21:24:18.213Z,87.40
2022-10-24T21:27:20.581Z,86.30
2022-10-24T21:30:22.775Z,87.03
2022-10-24T21:33:24.866Z,86.04
2022-10-24T21:36:26.943Z,86.90
2022-10-24T21:39:28.848Z,86.56
2022-10-24T21:42:33.344Z,85.73
2022-10-24T21:45:35.630Z,85.99
2022-10-24T21:48:38.191Z,85.54
2022-10-24T21:51:42.935Z,85.75
2022-10-24T21:54:44.960Z,85.60
2022-10-24T21:57:46.896Z,86.12
2022-10-24T22:00:48.998Z,85.87
2022-10-24T22:03:50.957Z,86.62
2022-10-24T22:06:53.662Z,85.53
2022-10-24T22:09:55.701Z,85.79
2022-10-24T22:12:57.713Z,85.74
2022-10-24T22:15:59.887Z,86.19
2022-10-24T22:19:04.554Z,86.31
2022-10-24T22:22:06.662Z,85.72
2022-10-24T22:25:08.930Z,86.21
2022-10-24T22:28:11.599Z,86.29
2022-10-24T22:31:14.924Z,85.53
2022-10-24T22:34:26.004Z,85.54
2022-10-24T22:37:30.908Z,86.58
2022-10-24T22:40:33.374Z,85.51
2022-10-24T22:43:35.786Z,85.27
2022-10-24T22:47:15.973Z,85.28
2022-10-24T22:50:21.814Z,85.37
2022-10-24T22:53:27.440Z,86.50
2022-10-24T22:56:33.605Z,86.41
2022-10-24T22:59:36.187Z,85.79
2022-10-24T23:02:44.880Z,86.41
2022-10-24T23:06:12.898Z,85.81
2022-10-24T23:09:15.378Z,86.87
2022-10-24T23:12:19.910Z,87.47
2022-10-24T23:15:22.509Z,86.63
2022-10-24T23:18:24.677Z,87.08
2022-10-24T23:21:55.170Z,87.50
2022-10-24T23:24:59.710Z,87.68
2022-10-24T23:28:24.320Z,87.07
2022-10-24T23:31:26.660Z,87.02
2022-10-24T23:34:29.129Z,87.03
2022-10-24T23:37:33.435Z,87.20
2022-10-24T23:40:37.316Z,86.12
2022-10-24T23:43:39.681Z,87.03
2022-10-24T23:46:46.938Z,85.65
2022-10-24T23:50:02.841Z,86.20
2022-10-24T23:53:35.625Z,86.16
2022-10-24T23:56:38.305Z,86.81
2022-10-24T23:59:40.321Z,86.01
